createdAt,value
2023-01-28T00:01:06.689Z,14.50
2023-01-28T00:03:35.901Z,12.60
2023-01-28T00:06:04.651Z,12.93
2023-01-28T00:08:34.673Z,12.90
2023-01-28T00:11:05.490Z,14.63
2023-01-28T00:13:34.408Z,11.93
2023-01-28T00:16:05.095Z,13.52
2023-01-28T00:18:34.415Z,12.00
2023-01-28T00:21:04.697Z,12.43
2023-01-28T00:23:38.527Z,12.73
2023-01-28T00:26:10.824Z,11.40
2023-01-28T00:28:42.014Z,12.88
2023-01-28T00:31:10.907Z,13.43
2023-01-28T00:33:40.034Z,13.93
2023-01-28T00:36:08.589Z,10.85
2023-01-28T00:38:38.047Z,13.73
2023-01-28T00:41:10.532Z,12.77
2023-01-28T00:43:39.516Z,14.20
2023-01-28T00:46:08.629Z,12.45
2023-01-28T00:48:36.850Z,13.32
2023-01-28T00:51:05.149Z,11.70
2023-01-28T00:53:34.562Z,12.05
2023-01-28T00:56:04.111Z,12.38
2023-01-28T00:58:34.049Z,10.52
2023-01-28T01:01:08.812Z,12.75
2023-01-28T01:03:36.901Z,13.90
2023-01-28T01:06:07.849Z,11.50
2023-01-28T01:08:39.862Z,12.75
2023-01-28T01:11:10.827Z,13.63
2023-01-28T01:13:39.800Z,11.57
2023-01-28T01:16:10.598Z,13.23
2023-01-28T01:18:41.797Z,11.82
2023-01-28T01:21:11.816Z,13.02
2023-01-28T01:23:40.188Z,11.93
2023-01-28T01:26:09.538Z,11.45
2023-01-28T01:28:37.620Z,13.60
2023-01-28T01:31:07.510Z,12.70
2023-01-28T01:33:35.997Z,11.95
2023-01-28T01:36:04.209Z,10.20
2023-01-28T01:38:32.135Z,12.63
2023-01-28T01:41:01.004Z,10.23
2023-01-28T01:43:49.339Z,9.85
2023-01-28T01:46:20.599Z,10.57
2023-01-28T01:48:49.457Z,9.00
2023-01-28T01:51:22.888Z,8.30
2023-01-28T01:53:54.212Z,8.05
2023-01-28T01:56:29.095Z,8.85
2023-01-28T01:58:59.503Z,8.85
2023-01-28T02:01:31.130Z,7.65
2023-01-28T02:04:05.307Z,7.22
2023-01-28T02:06:34.212Z,6.50
2023-01-28T02:09:03.395Z,8.23
2023-01-28T02:11:34.059Z,8.05
2023-01-28T02:14:07.137Z,7.55
2023-01-28T02:16:35.376Z,7.10
2023-01-28T02:19:03.410Z,9.55
2023-01-28T02:22:07.882Z,8.32
2023-01-28T02:24:51.801Z,8.57
2023-01-28T02:27:28.109Z,8.23
2023-01-28T02:30:04.015Z,7.47
2023-01-28T02:32:39.963Z,8.90
2023-01-28T02:35:13.792Z,6.70
2023-01-28T02:37:48.464Z,5.25
2023-01-28T02:40:21.189Z,5.32
2023-01-28T02:42:49.397Z,5.13
2023-01-28T02:45:23.188Z,4.15
2023-01-28T02:47:59.000Z,4.45
2023-01-28T02:50:37.861Z,4.40
2023-01-28T02:53:47.655Z,4.22
2023-01-28T02:56:22.346Z,5.43
2023-01-28T02:59:00.380Z,5.28
2023-01-28T03:01:40.056Z,6.90
2023-01-28T03:04:15.775Z,5.85
2023-01-28T03:06:49.566Z,5.75
2023-01-28T03:09:22.351Z,6.45
2023-01-28T03:12:11.051Z,6.45
2023-01-28T03:14:57.920Z,6.72
2023-01-28T03:17:50.920Z,6.68
2023-01-28T03:20:38.872Z,6.45
2023-01-28T03:23:31.073Z,6.82
2023-01-28T03:26:20.249Z,6.20
2023-01-28T03:29:08.488Z,7.47
2023-01-28T03:31:55.925Z,7.53
2023-01-28T03:34:42.715Z,7.05
2023-01-28T03:37:11.081Z,8.65
2023-01-28T03:39:46.583Z,5.80
2023-01-28T03:42:18.091Z,6.30
2023-01-28T03:45:04.027Z,7.10
2023-01-28T03:47:33.180Z,6.32
2023-01-28T03:50:07.200Z,8.05
2023-01-28T03:52:42.956Z,5.07
2023-01-28T03:55:31.193Z,6.38
2023-01-28T03:57:59.110Z,5.78
2023-01-28T04:00:27.166Z,5.47
2023-01-28T04:02:56.593Z,5.55
2023-01-28T04:05:26.740Z,5.53
2023-01-28T04:07:56.141Z,6.22
2023-01-28T04:10:39.643Z,5.57
2023-01-28T04:13:18.232Z,5.45
2023-01-28T04:15:46.982Z,5.68
2023-01-28T04:18:16.499Z,6.25
2023-01-28T04:20:45.935Z,6.10
2023-01-28T04:23:13.880Z,5.80
2023-01-28T04:25:41.876Z,6.03
2023-01-28T04:28:11.684Z,6.60
2023-01-28T04:30:39.697Z,7.20
2023-01-28T04:33:36.053Z,6.35
2023-01-28T04:36:15.031Z,6.70
2023-01-28T04:39:04.784Z,6.15
2023-01-28T04:41:38.679Z,5.57
2023-01-28T04:44:21.505Z,6.18
2023-01-28T04:46:59.171Z,6.93
2023-01-28T04:49:47.737Z,5.78
2023-01-28T04:52:35.976Z,5.35
2023-01-28T04:55:15.580Z,6.45
2023-01-28T04:57:43.717Z,5.80
2023-01-28T05:00:12.517Z,5.80
2023-01-28T05:02:40.885Z,3.60
2023-01-28T05:05:09.814Z,3.85
2023-01-28T05:07:59.711Z,4.82
2023-01-28T05:10:28.318Z,5.47
2023-01-28T05:12:56.267Z,5.55
2023-01-28T05:15:24.258Z,4.65
2023-01-28T05:17:56.179Z,5.65
2023-01-28T05:20:25.019Z,5.00
2023-01-28T05:22:55.991Z,6.20
2023-01-28T05:25:28.639Z,7.25
2023-01-28T05:27:56.616Z,6.50
2023-01-28T05:30:24.545Z,6.10
2023-01-28T05:32:56.832Z,6.85
2023-01-28T05:35:24.880Z,4.95
2023-01-28T05:37:52.983Z,5.30
2023-01-28T05:40:21.224Z,4.50
2023-01-28T05:42:50.640Z,5.25
2023-01-28T05:45:36.878Z,3.30
2023-01-28T05:48:12.390Z,4.10
2023-01-28T05:50:58.936Z,3.70
2023-01-28T05:53:34.041Z,3.90
2023-01-28T05:56:02.188Z,4.03
2023-01-28T05:58:33.483Z,3.25
2023-01-28T06:01:05.039Z,2.90
2023-01-28T06:03:41.218Z,3.90
2023-01-28T06:06:09.222Z,4.25
2023-01-28T06:08:38.271Z,3.70
2023-01-28T06:11:06.416Z,3.95
2023-01-28T06:13:37.722Z,3.13
2023-01-28T06:16:23.785Z,3.80
2023-01-28T06:19:07.898Z,5.05
2023-01-28T06:21:35.836Z,7.80
2023-01-28T06:24:03.810Z,2.70
2023-01-28T06:26:32.465Z,2.80
2023-01-28T06:29:01.957Z,3.00
2023-01-28T06:31:29.931Z,2.55
2023-01-28T06:33:57.893Z,2.67
2023-01-28T06:36:26.213Z,2.00
2023-01-28T06:38:54.090Z,2.92
2023-01-28T06:41:22.157Z,2.90
2023-01-28T06:43:50.050Z,2.35
2023-01-28T06:46:19.425Z,2.40
2023-01-28T06:48:47.363Z,2.47
2023-01-28T06:51:15.799Z,2.38
2023-01-28T06:53:45.803Z,2.45
2023-01-28T06:56:14.494Z,2.03
2023-01-28T06:58:42.574Z,2.40
2023-01-28T07:01:10.534Z,3.08
2023-01-28T07:03:39.828Z,3.20
2023-01-28T07:06:07.953Z,3.70
2023-01-28T07:08:37.722Z,2.55
2023-01-28T07:11:06.037Z,2.65
2023-01-28T07:13:34.042Z,2.20
2023-01-28T07:16:02.282Z,2.85
2023-01-28T07:18:30.296Z,3.28
2023-01-28T07:20:59.629Z,2.20
2023-01-28T07:23:29.068Z,3.38
2023-01-28T07:26:01.453Z,2.60
2023-01-28T07:28:29.368Z,2.80
2023-01-28T07:30:57.730Z,2.60
2023-01-28T07:33:25.804Z,1.90
2023-01-28T07:35:54.029Z,2.10
2023-01-28T07:38:23.331Z,1.85
2023-01-28T07:40:51.214Z,1.65
2023-01-28T07:43:21.219Z,2.03
2023-01-28T07:45:51.045Z,1.85
2023-01-28T07:48:19.044Z,1.70
2023-01-28T07:50:48.586Z,1.90
2023-01-28T07:53:16.603Z,2.40
2023-01-28T07:55:45.866Z,1.50
2023-01-28T07:58:13.894Z,1.90
2023-01-28T08:00:41.839Z,1.65
2023-01-28T08:03:14.607Z,2.00
2023-01-28T08:05:45.659Z,1.40
2023-01-28T08:08:14.216Z,2.17
2023-01-28T08:10:42.762Z,1.73
2023-01-28T08:13:13.760Z,1.95
2023-01-28T08:15:42.050Z,3.50
2023-01-28T08:18:13.182Z,3.15
2023-01-28T08:20:43.409Z,2.65
2023-01-28T08:23:14.529Z,2.72
2023-01-28T08:25:42.619Z,3.00
2023-01-28T08:28:12.677Z,2.65
2023-01-28T08:30:41.293Z,3.60
2023-01-28T08:33:10.816Z,3.22
2023-01-28T08:35:39.050Z,3.90
2023-01-28T08:38:08.544Z,4.13
2023-01-28T08:40:36.688Z,5.18
2023-01-28T08:43:05.364Z,5.70
2023-01-28T08:45:34.744Z,5.00
2023-01-28T08:48:06.645Z,4.60
2023-01-28T08:50:36.819Z,6.22
2023-01-28T08:53:06.994Z,5.60
2023-01-28T08:55:35.704Z,5.13
2023-01-28T08:58:04.675Z,5.45
2023-01-28T09:00:34.701Z,8.07
2023-01-28T09:03:05.778Z,6.70
2023-01-28T09:05:35.200Z,8.55
2023-01-28T09:08:04.185Z,6.53
2023-01-28T09:10:32.367Z,6.53
2023-01-28T09:13:00.341Z,6.45
2023-01-28T09:15:28.372Z,6.97
2023-01-28T09:17:59.827Z,7.65
2023-01-28T09:20:28.153Z,8.85
2023-01-28T09:22:56.373Z,8.18
2023-01-28T09:25:24.365Z,6.82
2023-01-28T09:27:52.282Z,6.15
2023-01-28T09:30:20.299Z,6.18
2023-01-28T09:32:52.260Z,5.63
2023-01-28T09:35:22.160Z,6.13
2023-01-28T09:37:50.383Z,5.57
2023-01-28T09:40:21.335Z,6.43
2023-01-28T09:43:00.385Z,7.05
2023-01-28T09:45:57.442Z,6.75
2023-01-28T09:48:32.740Z,7.00
2023-01-28T09:51:02.758Z,5.95
2023-01-28T09:53:33.332Z,7.70
2023-01-28T09:56:03.846Z,6.18
2023-01-28T09:58:32.236Z,6.15
2023-01-28T10:01:06.394Z,7.13
2023-01-28T10:03:42.869Z,6.05
2023-01-28T10:06:25.651Z,6.85
2023-01-28T10:09:14.684Z,5.93
2023-01-28T10:12:01.509Z,5.70
2023-01-28T10:14:38.951Z,6.68
2023-01-28T10:17:13.149Z,6.45
2023-01-28T10:19:44.830Z,5.60
2023-01-28T10:22:20.200Z,7.25
2023-01-28T10:24:52.501Z,7.03
2023-01-28T10:27:24.229Z,6.15
2023-01-28T10:29:55.423Z,7.07
2023-01-28T10:32:29.108Z,5.82
2023-01-28T10:34:59.626Z,6.40
2023-01-28T10:37:29.420Z,4.95
2023-01-28T10:40:00.048Z,5.80
2023-01-28T10:42:30.418Z,6.88
2023-01-28T10:45:01.715Z,22.55
2023-01-28T10:47:34.193Z,4.32
2023-01-28T10:50:03.912Z,3.90
2023-01-28T10:52:33.433Z,5.82
2023-01-28T10:55:02.512Z,4.57
2023-01-28T10:57:30.655Z,3.03
2023-01-28T10:59:58.722Z,4.15
2023-01-28T11:02:32.987Z,4.13
2023-01-28T11:05:08.256Z,4.38
2023-01-28T11:07:37.610Z,8.93
2023-01-28T11:10:28.471Z,8.10
2023-01-28T11:12:57.940Z,6.20
2023-01-28T11:15:26.434Z,4.00
2023-01-28T11:17:58.672Z,3.80
2023-01-28T11:20:29.010Z,2.47
2023-01-28T11:22:59.176Z,3.63
2023-01-28T11:25:31.898Z,4.57
2023-01-28T11:28:01.903Z,3.20
2023-01-28T11:30:32.555Z,3.28
2023-01-28T11:33:07.262Z,3.13
2023-01-28T11:35:35.209Z,3.25
2023-01-28T11:38:04.557Z,3.10
2023-01-28T11:40:32.551Z,2.80
2023-01-28T11:43:01.059Z,3.53
2023-01-28T11:45:38.199Z,3.55
2023-01-28T11:48:29.068Z,4.00
2023-01-28T11:51:04.431Z,5.00
2023-01-28T11:53:49.601Z,4.45
2023-01-28T11:56:30.351Z,2.75
2023-01-28T11:59:11.650Z,3.13
2023-01-28T12:01:48.510Z,3.15
2023-01-28T12:04:24.136Z,3.17
2023-01-28T12:07:22.193Z,3.30
2023-01-28T12:09:57.803Z,3.47
2023-01-28T12:12:43.953Z,2.92
2023-01-28T12:15:26.629Z,2.90
2023-01-28T12:18:08.862Z,2.65
2023-01-28T12:20:42.855Z,3.80
2023-01-28T12:23:27.756Z,4.70
2023-01-28T12:26:07.479Z,2.50
2023-01-28T12:28:47.535Z,2.70
2023-01-28T12:31:38.198Z,2.53
2023-01-28T12:34:31.320Z,2.50
2023-01-28T12:37:08.353Z,2.40
2023-01-28T12:39:46.730Z,3.10
2023-01-28T12:42:23.804Z,2.60
2023-01-28T12:44:57.782Z,2.30
2023-01-28T12:47:30.180Z,2.05
2023-01-28T12:50:03.483Z,1.52
2023-01-28T12:52:36.273Z,2.47
2023-01-28T12:55:14.696Z,1.75
2023-01-28T12:57:44.887Z,2.63
2023-01-28T13:00:24.807Z,3.53
2023-01-28T13:03:03.071Z,2.13
2023-01-28T13:05:37.772Z,2.40
2023-01-28T13:08:12.693Z,2.38
2023-01-28T13:10:43.592Z,1.70
2023-01-28T13:13:19.060Z,2.90
2023-01-28T13:15:47.815Z,3.03
2023-01-28T13:18:43.912Z,3.60
2023-01-28T13:21:16.373Z,1.52
2023-01-28T13:23:46.551Z,2.53
2023-01-28T13:26:31.523Z,2.22
2023-01-28T13:29:20.833Z,2.13
2023-01-28T13:31:52.421Z,1.98
2023-01-28T13:34:37.875Z,2.38
2023-01-28T13:37:18.077Z,2.40
2023-01-28T13:39:50.656Z,2.80
2023-01-28T13:42:25.643Z,4.32
2023-01-28T13:44:55.638Z,3.65
2023-01-28T13:47:28.198Z,6.80
2023-01-28T13:50:03.934Z,5.05
2023-01-28T13:52:35.991Z,4.75
2023-01-28T13:55:07.595Z,3.67
2023-01-28T13:58:16.477Z,5.90
2023-01-28T14:01:24.597Z,4.38
2023-01-28T14:04:17.505Z,2.60
2023-01-28T14:07:22.055Z,3.20
2023-01-28T14:10:16.023Z,2.83
2023-01-28T14:12:59.121Z,4.07
2023-01-28T14:15:45.880Z,3.80
2023-01-28T14:18:26.003Z,4.07
2023-01-28T14:20:56.515Z,3.58
2023-01-28T14:23:26.834Z,4.65
2023-01-28T14:26:06.086Z,3.20
2023-01-28T14:28:46.894Z,3.45
2023-01-28T14:31:21.416Z,4.25
2023-01-28T14:33:50.859Z,5.68
2023-01-28T14:36:19.092Z,4.65
2023-01-28T14:38:48.039Z,4.68
2023-01-28T14:41:24.635Z,4.75
2023-01-28T14:43:54.083Z,6.25
2023-01-28T14:46:31.857Z,5.68
2023-01-28T14:49:14.760Z,4.40
2023-01-28T14:52:12.907Z,3.88
2023-01-28T14:54:55.001Z,3.45
2023-01-28T14:57:37.820Z,3.70
2023-01-28T15:00:19.450Z,3.60
2023-01-28T15:02:47.373Z,3.08
2023-01-28T15:05:23.635Z,2.55
2023-01-28T15:07:52.307Z,3.33
2023-01-28T15:10:24.871Z,2.65
2023-01-28T15:12:57.158Z,2.72
2023-01-28T15:15:30.273Z,2.67
2023-01-28T15:18:03.324Z,2.97
2023-01-28T15:20:33.618Z,2.63
2023-01-28T15:23:04.389Z,3.70
2023-01-28T15:25:32.354Z,4.25
2023-01-28T15:28:02.577Z,4.35
2023-01-28T15:30:33.862Z,3.35
2023-01-28T15:33:05.036Z,3.25
2023-01-28T15:35:36.726Z,4.13
2023-01-28T15:38:05.573Z,2.95
2023-01-28T15:40:43.075Z,3.85
2023-01-28T15:43:20.382Z,3.45
2023-01-28T15:45:49.930Z,4.28
2023-01-28T15:48:20.001Z,4.50
2023-01-28T15:50:59.552Z,3.80
2023-01-28T15:53:34.422Z,5.30
2023-01-28T15:56:07.167Z,3.88
2023-01-28T15:58:37.126Z,3.35
2023-01-28T16:01:15.805Z,4.10
2023-01-28T16:03:47.290Z,6.60
2023-01-28T16:06:21.981Z,7.47
2023-01-28T16:08:55.413Z,5.38
2023-01-28T16:11:30.238Z,6.95
2023-01-28T16:13:59.195Z,6.15
2023-01-28T16:16:30.657Z,4.50
2023-01-28T16:18:59.007Z,3.28
2023-01-28T16:21:32.044Z,3.65
2023-01-28T16:24:03.106Z,4.03
2023-01-28T16:26:32.924Z,3.30
2023-01-28T16:29:12.562Z,3.13
2023-01-28T16:31:41.739Z,3.47
2023-01-28T16:34:11.519Z,3.83
2023-01-28T16:36:40.933Z,4.10
2023-01-28T16:39:08.902Z,3.45
2023-01-28T16:41:42.074Z,3.27
2023-01-28T16:44:14.036Z,2.55
2023-01-28T16:46:42.805Z,2.90
2023-01-28T16:49:11.601Z,2.95
2023-01-28T16:51:43.889Z,2.85
2023-01-28T16:54:14.948Z,3.33
2023-01-28T16:56:46.570Z,5.70
2023-01-28T16:59:17.069Z,6.10
2023-01-28T17:01:45.732Z,6.22
2023-01-28T17:04:13.818Z,5.00
2023-01-28T17:06:44.516Z,4.45
2023-01-28T17:09:14.164Z,3.50
2023-01-28T17:11:42.181Z,2.55
2023-01-28T17:14:10.736Z,2.63
2023-01-28T17:16:39.264Z,3.40
2023-01-28T17:19:07.263Z,3.70
2023-01-28T17:21:35.668Z,3.25
2023-01-28T17:24:06.385Z,3.30
2023-01-28T17:26:35.355Z,3.97
2023-01-28T17:29:03.951Z,2.90
2023-01-28T17:31:31.997Z,3.80
2023-01-28T17:34:00.946Z,6.93
2023-01-28T17:36:29.810Z,5.00
2023-01-28T17:38:57.976Z,4.90
2023-01-28T17:41:27.232Z,4.40
2023-01-28T17:43:57.084Z,4.60
2023-01-28T17:46:27.061Z,4.15
2023-01-28T17:53:01.771Z,3.70
2023-01-28T17:55:29.685Z,4.20
2023-01-28T17:57:58.951Z,5.13
2023-01-28T18:00:28.113Z,3.60
2023-01-28T18:02:56.204Z,4.32
2023-01-28T18:05:24.087Z,3.50
2023-01-28T18:07:52.196Z,3.40
2023-01-28T18:10:20.441Z,3.75
2023-01-28T18:12:48.431Z,3.95
2023-01-28T18:15:19.042Z,4.38
2023-01-28T18:17:47.083Z,4.25
2023-01-28T18:20:15.375Z,4.20
2023-01-28T18:22:43.506Z,4.40
2023-01-28T18:25:14.522Z,4.75
2023-01-28T18:27:42.770Z,5.13
2023-01-28T18:30:14.131Z,4.28
2023-01-28T18:32:43.515Z,3.40
2023-01-28T18:35:12.575Z,4.43
2023-01-28T18:37:41.067Z,4.13
2023-01-28T18:40:10.321Z,3.60
2023-01-28T18:42:38.548Z,3.95
2023-01-28T18:45:07.593Z,4.95
2023-01-28T18:47:35.534Z,4.05
2023-01-28T18:50:05.517Z,3.63
2023-01-28T18:52:33.476Z,4.65
2023-01-28T18:55:01.372Z,3.20
2023-01-28T18:57:30.007Z,4.35
2023-01-28T18:59:57.945Z,3.45
2023-01-28T19:02:26.049Z,4.43
2023-01-28T19:04:55.957Z,4.15
2023-01-28T19:07:25.256Z,4.13
2023-01-28T19:09:53.163Z,5.38
2023-01-28T19:12:22.471Z,5.07
2023-01-28T19:14:50.513Z,4.05
2023-01-28T19:17:18.503Z,3.22
2023-01-28T19:19:48.480Z,4.28
2023-01-28T19:22:16.535Z,4.22
2023-01-28T19:24:45.938Z,3.75
2023-01-28T19:27:14.598Z,5.70
2023-01-28T19:29:43.324Z,7.13
2023-01-28T19:32:11.230Z,6.45
2023-01-28T19:34:39.166Z,6.75
2023-01-28T19:37:07.463Z,5.07
2023-01-28T19:39:35.383Z,6.57
2023-01-28T19:42:04.821Z,7.18
2023-01-28T19:44:34.118Z,6.40
2023-01-28T19:47:02.453Z,4.18
2023-01-28T19:49:30.789Z,3.65
2023-01-28T19:51:58.779Z,3.45
2023-01-28T19:54:26.899Z,4.10
2023-01-28T19:56:54.871Z,3.45
2023-01-28T19:59:24.189Z,6.30
2023-01-28T20:01:52.165Z,4.65
2023-01-28T20:04:20.049Z,5.65
2023-01-28T20:06:50.107Z,3.67
2023-01-28T20:09:20.502Z,3.35
2023-01-28T20:11:48.426Z,3.50
2023-01-28T20:14:17.998Z,5.00
2023-01-28T20:16:47.271Z,4.93
2023-01-28T20:19:17.912Z,4.55
2023-01-28T20:21:46.720Z,4.05
2023-01-28T20:24:15.850Z,4.15
2023-01-28T20:26:45.078Z,5.55
2023-01-28T20:29:15.059Z,3.67
2023-01-28T20:31:43.410Z,4.50
2023-01-28T20:34:16.291Z,4.32
2023-01-28T20:36:46.626Z,4.78
2023-01-28T20:39:15.107Z,5.75
2023-01-28T20:41:43.117Z,5.68
2023-01-28T20:44:11.040Z,4.75
2023-01-28T20:46:39.074Z,5.00
2023-01-28T20:49:07.127Z,4.13
2023-01-28T20:51:38.197Z,4.80
2023-01-28T20:54:06.835Z,5.28
2023-01-28T20:56:36.827Z,5.05
2023-01-28T20:59:07.860Z,4.70
2023-01-28T21:01:38.662Z,6.70
2023-01-28T21:04:09.050Z,5.20
2023-01-28T21:06:40.039Z,4.32
2023-01-28T21:09:08.598Z,3.58
2023-01-28T21:11:37.004Z,3.83
2023-01-28T21:14:05.072Z,4.40
2023-01-28T21:16:33.074Z,4.28
2023-01-28T21:19:01.128Z,4.40
2023-01-28T21:21:30.119Z,4.40
2023-01-28T21:24:01.985Z,4.20
2023-01-28T21:26:30.347Z,5.13
2023-01-28T21:28:58.492Z,4.90
2023-01-28T21:31:27.889Z,4.10
2023-01-28T21:33:58.526Z,4.65
2023-01-28T21:36:27.095Z,6.10
2023-01-28T21:38:56.881Z,4.75
2023-01-28T21:41:26.564Z,4.30
2023-01-28T21:43:57.274Z,4.68
2023-01-28T21:46:30.093Z,3.58
2023-01-28T21:48:59.752Z,3.33
2023-01-28T21:51:39.735Z,3.05
2023-01-28T21:54:10.756Z,4.38
2023-01-28T21:56:40.297Z,4.20
2023-01-28T21:59:25.819Z,3.40
2023-01-28T22:01:53.853Z,3.72
2023-01-28T22:04:22.221Z,4.20
2023-01-28T22:06:50.458Z,4.20
2023-01-28T22:09:18.543Z,3.90
2023-01-28T22:11:47.939Z,4.75
2023-01-28T22:14:16.338Z,4.35
2023-01-28T22:16:44.655Z,4.57
2023-01-28T22:19:13.096Z,5.85
2023-01-28T22:21:46.779Z,5.25
2023-01-28T22:24:16.679Z,4.88
2023-01-28T22:26:45.679Z,4.32
2023-01-28T22:29:16.848Z,3.67
2023-01-28T22:31:46.996Z,4.43
2023-01-28T22:34:15.565Z,4.50
2023-01-28T22:36:44.084Z,4.75
2023-01-28T22:39:15.315Z,4.13
2023-01-28T22:41:44.394Z,4.53
2023-01-28T22:44:13.948Z,4.47
2023-01-28T22:46:42.007Z,5.70
2023-01-28T22:49:12.156Z,5.68
2023-01-28T22:51:41.702Z,4.65
2023-01-28T22:54:11.860Z,4.00
2023-01-28T22:56:40.244Z,4.45
2023-01-28T22:59:08.258Z,3.90
2023-01-28T23:01:37.820Z,4.10
2023-01-28T23:04:05.980Z,3.95
2023-01-28T23:06:34.684Z,4.05
2023-01-28T23:09:04.894Z,4.00
2023-01-28T23:11:34.037Z,3.90
2023-01-28T23:14:22.665Z,4.30
2023-01-28T23:17:09.792Z,4.38
2023-01-28T23:19:56.325Z,4.47
2023-01-28T23:22:45.102Z,5.07
2023-01-28T23:25:13.071Z,4.32
2023-01-28T23:27:41.037Z,4.65
2023-01-28T23:30:10.510Z,5.43
2023-01-28T23:32:44.855Z,4.13
2023-01-28T23:35:13.779Z,5.38
2023-01-28T23:37:42.593Z,4.70
2023-01-28T23:40:11.756Z,5.20
2023-01-28T23:42:39.737Z,5.88
2023-01-28T23:45:08.637Z,5.45
2023-01-28T23:47:37.158Z,4.45
2023-01-28T23:50:07.185Z,6.13
2023-01-28T23:52:35.310Z,6.05
2023-01-28T23:55:03.444Z,6.25
2023-01-28T23:57:31.626Z,6.82
2023-01-28T23:59:59.540Z,5.75
